AirNav   Air Wisconsin Up To $57,000 Bonus
 
 858 users online  

22OH Galenstein Park Heliport
Blue Ash, Ohio, USA

GOING TO BLUE ASH?


FAA INFORMATION EFFECTIVE 25 FEBRUARY 2021

Location

FAA Identifier: 22OH
Lat/Long: 39-15-36.2100N 084-21-51.7840W
39-15.603500N 084-21.863067W
39.2600583,-84.3643844
(estimated)
Elevation: 825 ft. / 251 m (estimated)
Variation: 04W (1990)
From city: 2 miles N of BLUE ASH, OH
Time zone: UTC -5 (UTC -4 during Daylight Saving Time)
Zip code: 45242

Heliport Operations

Heliport use: Private use. Permission required prior to landing
Activation date: 03/1993
Control tower: no
ARTCC: INDIANAPOLIS CENTER
FSS: DAYTON FLIGHT SERVICE STATION
Attendance: UNATNDD
Wind indicator: yes
Segmented circle: no

Heliport Communications

WX ASOS at HAO (10 nm NW): 121.425 (513-863-6137)
WX ASOS at LUK (10 nm S): PHONE 513-321-6291
WX AWOS-3 at I69 (13 nm SE): 127.275 (513-732-6978)
WX AWOS-3 at I68 (13 nm NE): 120.55 (513-934-5500)
WX AWOS-3 at MWO (16 nm N): 120.025 (513-422-3505)
WX ASOS at CVG (19 nm SW): 134.375 (859-767-8210)
WX AWOS-3PT at I67 (19 nm W): 118.15 (513-569-4964)

Nearby radio navigation aids

VOR radial/distance  VOR name  Freq  Var
CVGr051/21.5CINCINNATI VORTAC117.3004W
MXQr253/28.0MIDWEST VOR/DME112.9004W
FLMr000/36.7FALMOUTH VOR/DME117.0004W

 
NDB name  Hdg/Dist  Freq  Var  ID
SPORTYS332/13.024504WPWF .--. .-- ..-.
HOOK FIELD169/14.823904WHKF .... -.- ..-.

Heliport Services

Runway Information

Helipad H1

Dimensions: 250 x 100 ft. / 76 x 30 m
Surface: asphalt
Traffic pattern: leftleft

Heliport Ownership and Management from official FAA records

Ownership: Privately-owned
Owner: NEW HORIZONS HELICOPTERS
5677 CREEK ROAD
CINCINNATI, OH 45242
Phone 513-793-3550
Manager: DANIEL M. HIRSCH, PRESIDENT
5677 CREEK ROAD
CINCINNATI, OH 45242
Phone 513-793-3550

Heliport Operational Statistics

Aircraft based on the field: 2
Helicopters: 2
    

Additional Remarks

A52-H1 30 FT BLDG 700 FT WEST & 40 FT TREES 650 FT SOUTH OF HELIPAD.
FOR CD CTC CINCINNATI APCH AT 859-372-6440

Instrument Procedures

There are no published instrument procedures at 22OH.

Some nearby airports with instrument procedures:

KHAO - Butler County Regional Airport/Hogan Field (10 nm NW)
KLUK - Cincinnati Municipal Airport/Lunken Field (10 nm S)
I69 - Clermont County Airport (13 nm SE)
I68 - Warren County Airport/John Lane Field (13 nm NE)
KMWO - Middletown Regional Airport/Hook Field (16 nm N)
KCVG - Cincinnati/Northern Kentucky International Airport (19 nm SW)
I67 - Cincinnati West Airport (19 nm W)
 
Loc | Ops | Rwys | IFR | FBO | Links
Com | Nav | Svcs | Stats | Notes
Area around 22OH (Galenstein Park Heliport)
 
Road maps at: MapQuest Bing Google
 
Aerial photo
No photo
 
Sectional chart

 
Airport distance calculator
Flying to Galenstein Park Heliport? Find the distance to fly.

From to 22OH

Sunrise and sunset
Times for 01-Mar-2021
 Local
(UTC-5)
 Zulu
(UTC)
Morning civil twilight06:4411:44
Sunrise07:1112:11
Sunset18:2923:29
Evening civil twilight18:5523:55

Current date and time
Zulu (UTC)  01-Mar-2021 13:40:20
Local (UTC-5)  01-Mar-2021 08:40:20
 
METAR
KHAO 
10nm NW 
011253Z AUTO 31009KT 10SM OVC020 03/00 A3008 RMK AO2 SLP187 T00280000
KLUK 
10nm S 
011253Z 30005KT 8SM BKN022 04/M01 A3008 RMK AO2 SLP187 T00391006
KI69 
13nm SE 
011255Z AUTO 31008KT 10SM SCT018 03/00 A3006 RMK AO2 T00271001
KI68 
13nm NE 
011255Z AUTO 30009G15KT 10SM BKN018 A3005 RMK AO1
KMWO 
16nm N 
011255Z AUTO 31006KT 10SM OVC020 03/00 A3007 RMK AO2 T00281000
KCVG 
19nm SW 
011252Z 32008KT 8SM BKN017 OVC230 03/M01 A3005 RMK AO2 SLP177 T00281011
KI67 
19nm W 
011255Z AUTO 31004KT 10SM OVC019 02/00 A3008 RMK AO1
TAF
KLUK 
10nm S 
010343Z 0104/0124 27012KT P6SM -SHRA OVC035 FM010430 31012G20KT P6SM OVC025 FM011500 30012KT P6SM SCT250
KCVG 
19nm SW 
010520Z 0106/0212 31012G20KT 5SM -SHRA OVC025 FM010900 31012G18KT P6SM OVC018 FM011500 30012G18KT P6SM SCT250 FM020000 34006KT P6SM SCT250
NOTAMs
Click for the latest NOTAMs
NOTAMs are issued by the DoD/FAA and will open in a separate window not controlled by AirNav.

 

 
 

Would you like to see your business listed on this page?

 If your business provides an interesting product or service to pilots, flight crews, aircraft, or users of the Galenstein Park Heliport, you should consider listing it here.  To start the listing process, click on the button below
 
Add a business
 

Other Pages about Galenstein Park Heliport

Update a link
 
Copyright © AirNav, LLC. All rights reserved. Privacy Policy  Contact